ITY4556 LIRF-ELLX
Flight info
| Callsign | ITY4556 |
|---|---|
| Flight time | 1h 36m |
| Altitude | 34000 |
| Route | NEMBO DCT ELKAP DCT GOVGO DCT DEVOX DCT PIMOT DCT AOSTA DCT ORSUD DCT MOLUS DCT GILIR DCT PENDU DCT IXILU DCT EPL G21 GIVOR |
| Aircraft | A320/M-SDE3FGHIRWY/LB1 |
Departure
| Time | 2026-05-07 18:28 |
|---|---|
| Airport | Rome–Fiumicino Leonardo da Vinci International Airport (LIRF) |
Arrival
| Time | 2026-05-07 20:05 |
|---|---|
| Airport | Luxembourg-Findel International Airport (ELLX) |
| Time | Latitude | Longitude | Altitude | Speed | Heading |
|---|---|---|---|---|---|
| 2026-05-07 17:37 | 41.79754 | 12.24595 | 18 ft | 0 kts | 92° |
| 2026-05-07 18:11 | 41.79754 | 12.24591 | 16 ft | 3 kts | 92° |
| 2026-05-07 18:11 | 41.79755 | 12.24568 | 17 ft | 4 kts | 92° |
| 2026-05-07 18:11 | 41.79757 | 12.24520 | 18 ft | 3 kts | 92° |
| 2026-05-07 18:11 | 41.79755 | 12.24493 | 19 ft | 4 kts | 47° |
| 2026-05-07 18:12 | 41.79734 | 12.24480 | 19 ft | 4 kts | 353° |
| 2026-05-07 18:12 | 41.79709 | 12.24489 | 18 ft | 3 kts | 340° |
| 2026-05-07 18:12 | 41.79706 | 12.24491 | 17 ft | 0 kts | 340° |
| 2026-05-07 18:17 | 41.79711 | 12.24489 | 17 ft | 3 kts | 340° |
| 2026-05-07 18:17 | 41.79742 | 12.24473 | 18 ft | 7 kts | 340° |
| 2026-05-07 18:17 | 41.79800 | 12.24445 | 17 ft | 10 kts | 340° |
| 2026-05-07 18:17 | 41.79867 | 12.24411 | 16 ft | 10 kts | 339° |
| 2026-05-07 18:18 | 41.79941 | 12.24378 | 15 ft | 12 kts | 353° |
| 2026-05-07 18:18 | 41.79991 | 12.24450 | 17 ft | 10 kts | 69° |
| 2026-05-07 18:18 | 41.80014 | 12.24534 | 15 ft | 9 kts | 69° |
| 2026-05-07 18:18 | 41.80035 | 12.24609 | 16 ft | 8 kts | 70° |
| 2026-05-07 18:19 | 41.80054 | 12.24680 | 15 ft | 9 kts | 70° |
| 2026-05-07 18:19 | 41.80080 | 12.24770 | 16 ft | 12 kts | 69° |
| 2026-05-07 18:19 | 41.80115 | 12.24894 | 18 ft | 16 kts | 69° |
| 2026-05-07 18:19 | 41.80102 | 12.25046 | 15 ft | 19 kts | 104° |
| 2026-05-07 18:20 | 41.80107 | 12.25234 | 15 ft | 22 kts | 72° |
| 2026-05-07 18:20 | 41.80189 | 12.25399 | 15 ft | 22 kts | 24° |
| 2026-05-07 18:20 | 41.80321 | 12.25500 | 15 ft | 21 kts | 70° |
| 2026-05-07 18:20 | 41.80371 | 12.25666 | 15 ft | 18 kts | 69° |
| 2026-05-07 18:21 | 41.80414 | 12.25825 | 15 ft | 18 kts | 70° |
| 2026-05-07 18:21 | 41.80454 | 12.25972 | 15 ft | 16 kts | 69° |
| 2026-05-07 18:21 | 41.80492 | 12.26103 | 16 ft | 14 kts | 68° |
| 2026-05-07 18:21 | 41.80524 | 12.26220 | 15 ft | 13 kts | 72° |
| 2026-05-07 18:22 | 41.80567 | 12.26379 | 15 ft | 26 kts | 69° |
| 2026-05-07 18:22 | 41.80616 | 12.26555 | 15 ft | 35 kts | 70° |
| 2026-05-07 18:22 | 41.80714 | 12.26906 | 15 ft | 19 kts | 74° |
| 2026-05-07 18:22 | 41.80755 | 12.27062 | 15 ft | 16 kts | 70° |
| 2026-05-07 18:23 | 41.80800 | 12.27183 | 15 ft | 14 kts | 44° |
| 2026-05-07 18:23 | 41.80885 | 12.27225 | 15 ft | 13 kts | 12° |
| 2026-05-07 18:23 | 41.80978 | 12.27207 | 15 ft | 14 kts | 342° |
| 2026-05-07 18:23 | 41.81021 | 12.27148 | 15 ft | 9 kts | 264° |
| 2026-05-07 18:24 | 41.81000 | 12.27078 | 15 ft | 3 kts | 250° |
| 2026-05-07 18:24 | 41.80995 | 12.27058 | 15 ft | 2 kts | 249° |
| 2026-05-07 18:24 | 41.80992 | 12.27047 | 17 ft | 1 kts | 249° |
| 2026-05-07 18:24 | 41.80991 | 12.27045 | 17 ft | 0 kts | 249° |
| 2026-05-07 18:27 | 41.80970 | 12.26966 | 14 ft | 35 kts | 250° |
| 2026-05-07 18:28 | 41.80799 | 12.26343 | 19 ft | 104 kts | 248° |
| 2026-05-07 18:28 | 41.80482 | 12.25194 | 19 ft | 156 kts | 251° |
| 2026-05-07 18:28 | 41.80122 | 12.23821 | 613 ft | 155 kts | 252° |
| 2026-05-07 18:28 | 41.79752 | 12.22462 | 1270 ft | 155 kts | 251° |
| 2026-05-07 18:29 | 41.79358 | 12.21056 | 1674 ft | 171 kts | 258° |
| 2026-05-07 18:29 | 41.79257 | 12.19384 | 1974 ft | 191 kts | 272° |
| 2026-05-07 18:29 | 41.79221 | 12.17497 | 2412 ft | 214 kts | 270° |
| 2026-05-07 18:29 | 41.79174 | 12.15407 | 2784 ft | 234 kts | 269° |
| 2026-05-07 18:30 | 41.79119 | 12.13152 | 3294 ft | 250 kts | 269° |
| 2026-05-07 18:30 | 41.79057 | 12.10726 | 3808 ft | 269 kts | 269° |
| 2026-05-07 18:30 | 41.79004 | 12.08223 | 4627 ft | 274 kts | 269° |
| 2026-05-07 18:30 | 41.78987 | 12.05664 | 5585 ft | 276 kts | 269° |
| 2026-05-07 18:31 | 41.78988 | 12.03077 | 6503 ft | 279 kts | 269° |
| 2026-05-07 18:31 | 41.78995 | 12.00474 | 7387 ft | 280 kts | 269° |
| 2026-05-07 18:31 | 41.78999 | 11.97856 | 8289 ft | 281 kts | 268° |
| 2026-05-07 18:31 | 41.78999 | 11.95235 | 9200 ft | 283 kts | 269° |
| 2026-05-07 18:32 | 41.78996 | 11.92590 | 10073 ft | 285 kts | 269° |
| 2026-05-07 18:32 | 41.78987 | 11.89858 | 10455 ft | 305 kts | 269° |
| 2026-05-07 18:32 | 41.78976 | 11.86908 | 10711 ft | 327 kts | 269° |
| 2026-05-07 18:32 | 41.78962 | 11.83811 | 11241 ft | 337 kts | 268° |
| 2026-05-07 18:33 | 41.78947 | 11.80645 | 11956 ft | 341 kts | 269° |
| 2026-05-07 18:33 | 41.78937 | 11.77450 | 12717 ft | 345 kts | 268° |
| 2026-05-07 18:33 | 41.78928 | 11.74225 | 13466 ft | 348 kts | 268° |
| 2026-05-07 18:33 | 41.78915 | 11.70970 | 14139 ft | 351 kts | 268° |
| 2026-05-07 18:34 | 41.78898 | 11.67678 | 14809 ft | 354 kts | 268° |
| 2026-05-07 18:34 | 41.78880 | 11.64377 | 15507 ft | 355 kts | 268° |
| 2026-05-07 18:34 | 41.78863 | 11.61054 | 16196 ft | 357 kts | 269° |
| 2026-05-07 18:34 | 41.79121 | 11.57777 | 16855 ft | 362 kts | 280° |
| 2026-05-07 18:35 | 41.79920 | 11.54560 | 17520 ft | 367 kts | 292° |
| 2026-05-07 18:35 | 41.81238 | 11.51600 | 18181 ft | 374 kts | 304° |
| 2026-05-07 18:35 | 41.82939 | 11.48944 | 18765 ft | 377 kts | 308° |
| 2026-05-07 18:35 | 41.84679 | 11.46301 | 19395 ft | 378 kts | 308° |
| 2026-05-07 18:36 | 41.86416 | 11.43656 | 20019 ft | 379 kts | 308° |
| 2026-05-07 18:36 | 41.88158 | 11.40997 | 20624 ft | 380 kts | 308° |
| 2026-05-07 18:36 | 41.89905 | 11.38322 | 21225 ft | 382 kts | 308° |
| 2026-05-07 18:36 | 41.91658 | 11.35632 | 21810 ft | 383 kts | 308° |
| 2026-05-07 18:37 | 41.93421 | 11.32929 | 22385 ft | 385 kts | 308° |
| 2026-05-07 18:37 | 41.95188 | 11.30215 | 22953 ft | 387 kts | 308° |
| 2026-05-07 18:37 | 41.96971 | 11.27484 | 23478 ft | 389 kts | 308° |
| 2026-05-07 18:37 | 41.98766 | 11.24738 | 23922 ft | 391 kts | 308° |
| 2026-05-07 18:38 | 42.00566 | 11.21978 | 24334 ft | 394 kts | 308° |
| 2026-05-07 18:38 | 42.02355 | 11.19219 | 24738 ft | 396 kts | 307° |
| 2026-05-07 18:38 | 42.04170 | 11.16414 | 25118 ft | 398 kts | 307° |
| 2026-05-07 18:38 | 42.05998 | 11.13590 | 25495 ft | 401 kts | 307° |
| 2026-05-07 18:39 | 42.07834 | 11.10754 | 25893 ft | 403 kts | 307° |
| 2026-05-07 18:39 | 42.09674 | 11.07908 | 26328 ft | 403 kts | 307° |
| 2026-05-07 18:39 | 42.11511 | 11.05064 | 26721 ft | 404 kts | 307° |
| 2026-05-07 18:39 | 42.13364 | 11.02195 | 27099 ft | 406 kts | 306° |
| 2026-05-07 18:40 | 42.15218 | 10.99317 | 27470 ft | 408 kts | 306° |
| 2026-05-07 18:40 | 42.17082 | 10.96420 | 27830 ft | 409 kts | 306° |
| 2026-05-07 18:40 | 42.18949 | 10.93514 | 28178 ft | 411 kts | 306° |
| 2026-05-07 18:40 | 42.20828 | 10.90592 | 28506 ft | 413 kts | 306° |
| 2026-05-07 18:41 | 42.22714 | 10.87658 | 28842 ft | 415 kts | 306° |
| 2026-05-07 18:41 | 42.24608 | 10.84705 | 29172 ft | 417 kts | 306° |
| 2026-05-07 18:41 | 42.26575 | 10.81793 | 29475 ft | 422 kts | 311° |
| 2026-05-07 18:41 | 42.28889 | 10.79288 | 29771 ft | 432 kts | 320° |
| 2026-05-07 18:42 | 42.31559 | 10.77335 | 30048 ft | 443 kts | 330° |
| 2026-05-07 18:42 | 42.34521 | 10.76035 | 30276 ft | 454 kts | 340° |
| 2026-05-07 18:42 | 42.37578 | 10.75113 | 30503 ft | 456 kts | 340° |
| 2026-05-07 18:42 | 42.40684 | 10.74171 | 30711 ft | 458 kts | 340° |
| 2026-05-07 18:43 | 42.43792 | 10.73216 | 30929 ft | 459 kts | 340° |
| 2026-05-07 18:43 | 42.46902 | 10.72252 | 31221 ft | 458 kts | 340° |
| 2026-05-07 18:43 | 42.50014 | 10.71287 | 31509 ft | 458 kts | 340° |
| 2026-05-07 18:43 | 42.53117 | 10.70320 | 31816 ft | 457 kts | 339° |
| 2026-05-07 18:44 | 42.56219 | 10.69353 | 32124 ft | 456 kts | 339° |
| 2026-05-07 18:44 | 42.59309 | 10.68394 | 32422 ft | 456 kts | 339° |
| 2026-05-07 18:44 | 42.62407 | 10.67435 | 32709 ft | 456 kts | 339° |
| 2026-05-07 18:44 | 42.65502 | 10.66474 | 32990 ft | 456 kts | 339° |
| 2026-05-07 18:45 | 42.68549 | 10.65526 | 33269 ft | 455 kts | 339° |
| 2026-05-07 18:45 | 42.71607 | 10.64439 | 33551 ft | 449 kts | 333° |
| 2026-05-07 18:45 | 42.74465 | 10.62841 | 33862 ft | 439 kts | 324° |
| 2026-05-07 18:45 | 42.77191 | 10.60992 | 33970 ft | 436 kts | 324° |
| 2026-05-07 18:46 | 42.79901 | 10.59155 | 33986 ft | 433 kts | 324° |
| 2026-05-07 18:46 | 42.85292 | 10.55503 | 33990 ft | 431 kts | 324° |
| 2026-05-07 18:47 | 42.90661 | 10.51863 | 33993 ft | 431 kts | 324° |
| 2026-05-07 18:47 | 42.96029 | 10.48206 | 33999 ft | 431 kts | 324° |
| 2026-05-07 18:48 | 43.01392 | 10.44552 | 33992 ft | 430 kts | 324° |
| 2026-05-07 18:48 | 43.06750 | 10.40899 | 33996 ft | 430 kts | 324° |
| 2026-05-07 18:49 | 43.12104 | 10.37238 | 33989 ft | 429 kts | 324° |
| 2026-05-07 18:49 | 43.17414 | 10.33524 | 34022 ft | 424 kts | 320° |
| 2026-05-07 18:50 | 43.22142 | 10.28874 | 34020 ft | 417 kts | 315° |
| 2026-05-07 18:50 | 43.26764 | 10.24166 | 34013 ft | 416 kts | 315° |
| 2026-05-07 18:51 | 43.31424 | 10.19431 | 34017 ft | 420 kts | 315° |
| 2026-05-07 18:51 | 43.36188 | 10.14573 | 33997 ft | 431 kts | 315° |
| 2026-05-07 18:52 | 43.41019 | 10.09657 | 33996 ft | 432 kts | 315° |
| 2026-05-07 18:52 | 43.45854 | 10.04731 | 33999 ft | 432 kts | 315° |
| 2026-05-07 18:53 | 43.50688 | 9.99790 | 33997 ft | 432 kts | 315° |
| 2026-05-07 18:53 | 43.55514 | 9.94840 | 34001 ft | 432 kts | 315° |
| 2026-05-07 18:54 | 43.60332 | 9.89880 | 34027 ft | 432 kts | 315° |
| 2026-05-07 18:54 | 43.65147 | 9.84922 | 34023 ft | 431 kts | 315° |
| 2026-05-07 18:55 | 43.69919 | 9.79998 | 34031 ft | 429 kts | 315° |
| 2026-05-07 18:55 | 43.74699 | 9.75041 | 34021 ft | 429 kts | 315° |
| 2026-05-07 18:56 | 43.79469 | 9.70089 | 34015 ft | 428 kts | 315° |
| 2026-05-07 18:56 | 43.84236 | 9.65151 | 34031 ft | 427 kts | 315° |
| 2026-05-07 18:57 | 43.88987 | 9.60214 | 34026 ft | 426 kts | 315° |
| 2026-05-07 18:57 | 43.93715 | 9.55271 | 34026 ft | 425 kts | 315° |
| 2026-05-07 18:58 | 43.98442 | 9.50325 | 34022 ft | 425 kts | 315° |
| 2026-05-07 18:58 | 44.03164 | 9.45384 | 34053 ft | 425 kts | 314° |
| 2026-05-07 18:59 | 44.07090 | 9.41259 | 34035 ft | 424 kts | 314° |
| 2026-05-07 18:59 | 44.11800 | 9.36307 | 34027 ft | 424 kts | 314° |
| 2026-05-07 19:00 | 44.16511 | 9.31345 | 34024 ft | 424 kts | 314° |
| 2026-05-07 19:00 | 44.21227 | 9.26367 | 34020 ft | 424 kts | 314° |
| 2026-05-07 19:01 | 44.25904 | 9.21412 | 34030 ft | 425 kts | 315° |
| 2026-05-07 19:01 | 44.30655 | 9.16378 | 34007 ft | 425 kts | 315° |
| 2026-05-07 19:02 | 44.35283 | 9.11496 | 34003 ft | 412 kts | 314° |
| 2026-05-07 19:02 | 44.39841 | 9.06643 | 34004 ft | 412 kts | 314° |
| 2026-05-07 19:03 | 44.44377 | 9.01786 | 34002 ft | 413 kts | 314° |
| 2026-05-07 19:03 | 44.48945 | 8.96899 | 34005 ft | 413 kts | 314° |
| 2026-05-07 19:04 | 44.53515 | 8.92010 | 33999 ft | 413 kts | 314° |
| 2026-05-07 19:04 | 44.58093 | 8.87103 | 33993 ft | 413 kts | 314° |
| 2026-05-07 19:05 | 44.62658 | 8.82208 | 33994 ft | 413 kts | 314° |
| 2026-05-07 19:05 | 44.67217 | 8.77291 | 34010 ft | 413 kts | 315° |
| 2026-05-07 19:06 | 44.71715 | 8.72287 | 33998 ft | 411 kts | 312° |
| 2026-05-07 19:06 | 44.78064 | 8.64274 | 33986 ft | 409 kts | 310° |
| 2026-05-07 19:07 | 44.82276 | 8.58861 | 33986 ft | 410 kts | 311° |
| 2026-05-07 19:07 | 44.86536 | 8.53490 | 33981 ft | 411 kts | 311° |
| 2026-05-07 19:08 | 44.90822 | 8.48125 | 33986 ft | 412 kts | 312° |
| 2026-05-07 19:08 | 44.95112 | 8.42738 | 33974 ft | 413 kts | 311° |
| 2026-05-07 19:09 | 44.99409 | 8.37310 | 33972 ft | 415 kts | 311° |
| 2026-05-07 19:09 | 45.03718 | 8.31855 | 33969 ft | 416 kts | 311° |
| 2026-05-07 19:10 | 45.08028 | 8.26385 | 33965 ft | 416 kts | 311° |
| 2026-05-07 19:10 | 45.12312 | 8.20936 | 33976 ft | 417 kts | 312° |
| 2026-05-07 19:11 | 45.16632 | 8.15437 | 33971 ft | 417 kts | 312° |
| 2026-05-07 19:11 | 45.20945 | 8.09922 | 33974 ft | 418 kts | 312° |
| 2026-05-07 19:12 | 45.25280 | 8.04385 | 33965 ft | 419 kts | 312° |
| 2026-05-07 19:12 | 45.29610 | 7.98844 | 33935 ft | 419 kts | 316° |
| 2026-05-07 19:13 | 45.33956 | 7.93251 | 33925 ft | 421 kts | 312° |
| 2026-05-07 19:13 | 45.38307 | 7.87652 | 33940 ft | 422 kts | 312° |
| 2026-05-07 19:14 | 45.42657 | 7.82054 | 33939 ft | 422 kts | 312° |
| 2026-05-07 19:14 | 45.47010 | 7.76433 | 34012 ft | 422 kts | 312° |
| 2026-05-07 19:15 | 45.51355 | 7.70802 | 34007 ft | 422 kts | 312° |
| 2026-05-07 19:15 | 45.55697 | 7.65241 | 34020 ft | 422 kts | 313° |
| 2026-05-07 19:16 | 45.60088 | 7.59664 | 34016 ft | 422 kts | 313° |
| 2026-05-07 19:16 | 45.64500 | 7.54045 | 34010 ft | 422 kts | 313° |
| 2026-05-07 19:17 | 45.68874 | 7.48448 | 34011 ft | 422 kts | 313° |
| 2026-05-07 19:17 | 45.71057 | 7.45643 | 33899 ft | 422 kts | 313° |
| 2026-05-07 19:17 | 45.73210 | 7.42871 | 33918 ft | 422 kts | 313° |
| 2026-05-07 19:18 | 45.77570 | 7.37247 | 33914 ft | 422 kts | 313° |
| 2026-05-07 19:18 | 45.82190 | 7.31984 | 33911 ft | 426 kts | 320° |
| 2026-05-07 19:19 | 45.87033 | 7.27084 | 33926 ft | 426 kts | 320° |
| 2026-05-07 19:19 | 45.91880 | 7.22155 | 33950 ft | 427 kts | 320° |
| 2026-05-07 19:20 | 45.96727 | 7.17209 | 33990 ft | 427 kts | 320° |
| 2026-05-07 19:20 | 46.01533 | 7.12297 | 33990 ft | 427 kts | 320° |
| 2026-05-07 19:21 | 46.06365 | 7.07334 | 33985 ft | 427 kts | 319° |
| 2026-05-07 19:21 | 46.11214 | 7.02329 | 33983 ft | 428 kts | 320° |
| 2026-05-07 19:22 | 46.16064 | 6.97352 | 34012 ft | 428 kts | 320° |
| 2026-05-07 19:22 | 46.20908 | 6.92361 | 34020 ft | 427 kts | 320° |
| 2026-05-07 19:23 | 46.25740 | 6.87352 | 34020 ft | 427 kts | 320° |
| 2026-05-07 19:23 | 46.30573 | 6.82349 | 34030 ft | 427 kts | 320° |
| 2026-05-07 19:24 | 46.35394 | 6.77339 | 34020 ft | 427 kts | 320° |
| 2026-05-07 19:24 | 46.40219 | 6.72306 | 34029 ft | 427 kts | 320° |
| 2026-05-07 19:25 | 46.45101 | 6.67470 | 34026 ft | 431 kts | 327° |
| 2026-05-07 19:25 | 46.50537 | 6.63607 | 34028 ft | 433 kts | 329° |
| 2026-05-07 19:26 | 46.55961 | 6.59798 | 34031 ft | 433 kts | 329° |
| 2026-05-07 19:26 | 46.61349 | 6.56001 | 34032 ft | 433 kts | 329° |
| 2026-05-07 19:27 | 46.66761 | 6.52184 | 34037 ft | 433 kts | 329° |
| 2026-05-07 19:27 | 46.72186 | 6.48337 | 34047 ft | 433 kts | 329° |
| 2026-05-07 19:28 | 46.77599 | 6.44483 | 34044 ft | 433 kts | 329° |
| 2026-05-07 19:28 | 46.83020 | 6.40626 | 34068 ft | 433 kts | 329° |
| 2026-05-07 19:29 | 46.88461 | 6.36857 | 34074 ft | 436 kts | 336° |
| 2026-05-07 19:29 | 46.91438 | 6.35875 | 34075 ft | 442 kts | 347° |
| 2026-05-07 19:29 | 46.94482 | 6.35228 | 34072 ft | 442 kts | 347° |
| 2026-05-07 19:30 | 47.00579 | 6.33964 | 34079 ft | 443 kts | 347° |
| 2026-05-07 19:30 | 47.06681 | 6.32721 | 34077 ft | 442 kts | 347° |
| 2026-05-07 19:31 | 47.12776 | 6.31454 | 34073 ft | 442 kts | 347° |
| 2026-05-07 19:31 | 47.18825 | 6.30174 | 34071 ft | 442 kts | 347° |
| 2026-05-07 19:32 | 47.24916 | 6.28894 | 34085 ft | 442 kts | 347° |
| 2026-05-07 19:32 | 47.31012 | 6.27611 | 34076 ft | 441 kts | 347° |
| 2026-05-07 19:33 | 47.37098 | 6.26326 | 34071 ft | 441 kts | 347° |
| 2026-05-07 19:33 | 47.43185 | 6.25026 | 34084 ft | 441 kts | 347° |
| 2026-05-07 19:34 | 47.49229 | 6.23747 | 34054 ft | 442 kts | 347° |
| 2026-05-07 19:34 | 47.55315 | 6.22463 | 34016 ft | 441 kts | 347° |
| 2026-05-07 19:35 | 47.61397 | 6.21162 | 33991 ft | 442 kts | 347° |
| 2026-05-07 19:35 | 47.67481 | 6.19853 | 34121 ft | 441 kts | 348° |
| 2026-05-07 19:36 | 47.73579 | 6.18549 | 34057 ft | 442 kts | 348° |
| 2026-05-07 19:36 | 47.79695 | 6.17533 | 33770 ft | 445 kts | 359° |
| 2026-05-07 19:37 | 47.82789 | 6.18109 | 32945 ft | 449 kts | 5° |
| 2026-05-07 19:37 | 47.85877 | 6.18865 | 32076 ft | 451 kts | 6° |
| 2026-05-07 19:37 | 47.88967 | 6.19659 | 31462 ft | 447 kts | 7° |
| 2026-05-07 19:37 | 47.92012 | 6.20455 | 30895 ft | 442 kts | 7° |
| 2026-05-07 19:38 | 47.95035 | 6.21241 | 30341 ft | 438 kts | 7° |
| 2026-05-07 19:38 | 47.98024 | 6.22010 | 29749 ft | 434 kts | 7° |
| 2026-05-07 19:38 | 48.00984 | 6.22760 | 29137 ft | 429 kts | 6° |
| 2026-05-07 19:38 | 48.03915 | 6.23493 | 28590 ft | 424 kts | 6° |
| 2026-05-07 19:39 | 48.06818 | 6.24211 | 28001 ft | 421 kts | 7° |
| 2026-05-07 19:39 | 48.09690 | 6.24919 | 27439 ft | 416 kts | 7° |
| 2026-05-07 19:39 | 48.12536 | 6.25628 | 26885 ft | 413 kts | 7° |
| 2026-05-07 19:39 | 48.14405 | 6.26098 | 26523 ft | 410 kts | 7° |
| 2026-05-07 19:40 | 48.18155 | 6.27043 | 25804 ft | 406 kts | 7° |
| 2026-05-07 19:40 | 48.20923 | 6.27738 | 25287 ft | 402 kts | 7° |
| 2026-05-07 19:40 | 48.23638 | 6.28420 | 24792 ft | 399 kts | 7° |
| 2026-05-07 19:40 | 48.26366 | 6.29105 | 24302 ft | 396 kts | 7° |
| 2026-05-07 19:41 | 48.29075 | 6.29783 | 23829 ft | 393 kts | 7° |
| 2026-05-07 19:41 | 48.31767 | 6.30458 | 23309 ft | 391 kts | 7° |
| 2026-05-07 19:41 | 48.34440 | 6.31131 | 22779 ft | 388 kts | 7° |
| 2026-05-07 19:41 | 48.37095 | 6.31807 | 22263 ft | 385 kts | 7° |
| 2026-05-07 19:42 | 48.38876 | 6.32263 | 21930 ft | 383 kts | 7° |
| 2026-05-07 19:42 | 48.41493 | 6.32934 | 21437 ft | 380 kts | 7° |
| 2026-05-07 19:42 | 48.44054 | 6.33588 | 20954 ft | 377 kts | 7° |
| 2026-05-07 19:42 | 48.46639 | 6.34246 | 20483 ft | 375 kts | 7° |
| 2026-05-07 19:43 | 48.49207 | 6.34897 | 20017 ft | 372 kts | 7° |
| 2026-05-07 19:43 | 48.51750 | 6.35540 | 19548 ft | 370 kts | 7° |
| 2026-05-07 19:43 | 48.54285 | 6.36183 | 19090 ft | 367 kts | 7° |
| 2026-05-07 19:43 | 48.56792 | 6.36822 | 18643 ft | 365 kts | 7° |
| 2026-05-07 19:44 | 48.59284 | 6.37459 | 18185 ft | 362 kts | 7° |
| 2026-05-07 19:44 | 48.61762 | 6.38092 | 17699 ft | 360 kts | 7° |
| 2026-05-07 19:44 | 48.64221 | 6.38722 | 17228 ft | 357 kts | 7° |
| 2026-05-07 19:44 | 48.66654 | 6.39452 | 16763 ft | 356 kts | 13° |
| 2026-05-07 19:45 | 48.69044 | 6.40415 | 16311 ft | 354 kts | 13° |
| 2026-05-07 19:45 | 48.71412 | 6.41370 | 15875 ft | 351 kts | 13° |
| 2026-05-07 19:45 | 48.73764 | 6.42317 | 15445 ft | 349 kts | 13° |
| 2026-05-07 19:45 | 48.76106 | 6.43255 | 15019 ft | 347 kts | 13° |
| 2026-05-07 19:46 | 48.78433 | 6.44189 | 14598 ft | 344 kts | 13° |
| 2026-05-07 19:46 | 48.80743 | 6.45121 | 14192 ft | 343 kts | 13° |
| 2026-05-07 19:46 | 48.83043 | 6.46052 | 14057 ft | 342 kts | 13° |
| 2026-05-07 19:46 | 48.85346 | 6.46986 | 14070 ft | 343 kts | 13° |
| 2026-05-07 19:47 | 48.87651 | 6.47917 | 14079 ft | 343 kts | 13° |
| 2026-05-07 19:47 | 48.89957 | 6.48847 | 14087 ft | 343 kts | 13° |
| 2026-05-07 19:47 | 48.92258 | 6.49778 | 14165 ft | 341 kts | 14° |
| 2026-05-07 19:47 | 48.94544 | 6.50702 | 14080 ft | 339 kts | 15° |
| 2026-05-07 19:48 | 48.96821 | 6.51627 | 14076 ft | 339 kts | 14° |
| 2026-05-07 19:48 | 48.99069 | 6.52541 | 14076 ft | 339 kts | 14° |
| 2026-05-07 19:48 | 49.01344 | 6.53470 | 14076 ft | 339 kts | 14° |
| 2026-05-07 19:48 | 49.03623 | 6.54400 | 14075 ft | 339 kts | 14° |
| 2026-05-07 19:49 | 49.05894 | 6.55324 | 13935 ft | 336 kts | 14° |
| 2026-05-07 19:49 | 49.08150 | 6.56245 | 13449 ft | 335 kts | 14° |
| 2026-05-07 19:49 | 49.10390 | 6.57163 | 12967 ft | 333 kts | 14° |
| 2026-05-07 19:49 | 49.12625 | 6.58080 | 12506 ft | 331 kts | 14° |
| 2026-05-07 19:50 | 49.14840 | 6.58988 | 12048 ft | 328 kts | 13° |
| 2026-05-07 19:50 | 49.17039 | 6.59890 | 11606 ft | 326 kts | 13° |
| 2026-05-07 19:50 | 49.19221 | 6.60782 | 11160 ft | 323 kts | 14° |
| 2026-05-07 19:50 | 49.21418 | 6.61393 | 10730 ft | 319 kts | 3° |
| 2026-05-07 19:51 | 49.23621 | 6.61291 | 10298 ft | 315 kts | 351° |
| 2026-05-07 19:51 | 49.25730 | 6.60484 | 9968 ft | 308 kts | 338° |
| 2026-05-07 19:51 | 49.27646 | 6.59188 | 9834 ft | 293 kts | 334° |
| 2026-05-07 19:51 | 49.29457 | 6.57932 | 9425 ft | 283 kts | 335° |
| 2026-05-07 19:52 | 49.31238 | 6.56712 | 9134 ft | 278 kts | 335° |
| 2026-05-07 19:52 | 49.32993 | 6.55512 | 8741 ft | 276 kts | 335° |
| 2026-05-07 19:52 | 49.34746 | 6.54311 | 8352 ft | 274 kts | 335° |
| 2026-05-07 19:52 | 49.36472 | 6.53125 | 8078 ft | 270 kts | 335° |
| 2026-05-07 19:53 | 49.38194 | 6.51938 | 8060 ft | 272 kts | 335° |
| 2026-05-07 19:53 | 49.39918 | 6.50749 | 8063 ft | 272 kts | 335° |
| 2026-05-07 19:53 | 49.41644 | 6.49554 | 8059 ft | 271 kts | 335° |
| 2026-05-07 19:53 | 49.43341 | 6.48380 | 8047 ft | 270 kts | 335° |
| 2026-05-07 19:54 | 49.45048 | 6.47199 | 7662 ft | 269 kts | 334° |
| 2026-05-07 19:54 | 49.46583 | 6.45608 | 7246 ft | 266 kts | 315° |
| 2026-05-07 19:54 | 49.47677 | 6.43331 | 6842 ft | 265 kts | 296° |
| 2026-05-07 19:54 | 49.48229 | 6.40631 | 6444 ft | 265 kts | 278° |
| 2026-05-07 19:55 | 49.48212 | 6.37806 | 6028 ft | 264 kts | 266° |
| 2026-05-07 19:55 | 49.48055 | 6.35004 | 5600 ft | 263 kts | 266° |
| 2026-05-07 19:55 | 49.47901 | 6.32205 | 5182 ft | 262 kts | 267° |
| 2026-05-07 19:55 | 49.47752 | 6.29427 | 4822 ft | 258 kts | 267° |
| 2026-05-07 19:56 | 49.47607 | 6.26747 | 4679 ft | 245 kts | 267° |
| 2026-05-07 19:56 | 49.47467 | 6.24195 | 4527 ft | 235 kts | 268° |
| 2026-05-07 19:56 | 49.47333 | 6.21717 | 4246 ft | 231 kts | 268° |
| 2026-05-07 19:56 | 49.47202 | 6.19263 | 3920 ft | 230 kts | 268° |
| 2026-05-07 19:57 | 49.47071 | 6.16820 | 3600 ft | 229 kts | 268° |
| 2026-05-07 19:57 | 49.46938 | 6.14387 | 3269 ft | 228 kts | 268° |
| 2026-05-07 19:57 | 49.46802 | 6.11956 | 3031 ft | 226 kts | 268° |
| 2026-05-07 19:57 | 49.46666 | 6.09548 | 3003 ft | 223 kts | 268° |
| 2026-05-07 19:58 | 49.46538 | 6.07230 | 3001 ft | 212 kts | 269° |
| 2026-05-07 19:58 | 49.46645 | 6.05050 | 3014 ft | 205 kts | 288° |
| 2026-05-07 19:58 | 49.47225 | 6.03082 | 3015 ft | 201 kts | 307° |
| 2026-05-07 19:58 | 49.48191 | 6.01539 | 3013 ft | 194 kts | 326° |
| 2026-05-07 19:59 | 49.49289 | 6.00546 | 3044 ft | 177 kts | 332° |
| 2026-05-07 19:59 | 49.50313 | 5.99652 | 3009 ft | 161 kts | 331° |
| 2026-05-07 19:59 | 49.51241 | 5.98831 | 2999 ft | 146 kts | 331° |
| 2026-05-07 19:59 | 49.52107 | 5.98098 | 2993 ft | 139 kts | 340° |
| 2026-05-07 20:00 | 49.53040 | 5.97897 | 3003 ft | 136 kts | 6° |
| 2026-05-07 20:00 | 49.53925 | 5.98385 | 3001 ft | 138 kts | 33° |
| 2026-05-07 20:00 | 49.54556 | 5.99499 | 3009 ft | 140 kts | 56° |
| 2026-05-07 20:00 | 49.55046 | 6.00807 | 3011 ft | 140 kts | 56° |
| 2026-05-07 20:01 | 49.55534 | 6.02112 | 3016 ft | 141 kts | 55° |
| 2026-05-07 20:01 | 49.56027 | 6.03426 | 3015 ft | 141 kts | 56° |
| 2026-05-07 20:01 | 49.56515 | 6.04730 | 3006 ft | 141 kts | 56° |
| 2026-05-07 20:01 | 49.57006 | 6.06040 | 3035 ft | 141 kts | 56° |
| 2026-05-07 20:02 | 49.57497 | 6.07354 | 3032 ft | 141 kts | 56° |
| 2026-05-07 20:02 | 49.57983 | 6.08654 | 3035 ft | 140 kts | 56° |
| 2026-05-07 20:02 | 49.58467 | 6.09948 | 3026 ft | 139 kts | 56° |
| 2026-05-07 20:02 | 49.58950 | 6.11240 | 2697 ft | 139 kts | 56° |
| 2026-05-07 20:03 | 49.59422 | 6.12506 | 2413 ft | 137 kts | 56° |
| 2026-05-07 20:03 | 49.59889 | 6.13783 | 2054 ft | 136 kts | 59° |
| 2026-05-07 20:03 | 49.60366 | 6.15065 | 1747 ft | 135 kts | 58° |
| 2026-05-07 20:03 | 49.60833 | 6.16302 | 1563 ft | 135 kts | 59° |
| 2026-05-07 20:04 | 49.61291 | 6.17551 | 1365 ft | 135 kts | 50° |
| 2026-05-07 20:04 | 49.61767 | 6.18789 | 1216 ft | 135 kts | 61° |
| 2026-05-07 20:04 | 49.62198 | 6.19951 | 1213 ft | 107 kts | 64° |
| 2026-05-07 20:04 | 49.62492 | 6.20746 | 1239 ft | 65 kts | 59° |
| 2026-05-07 20:05 | 49.62693 | 6.21290 | 1232 ft | 54 kts | 61° |
| 2026-05-07 20:05 | 49.62878 | 6.21779 | 1215 ft | 51 kts | 60° |
| 2026-05-07 20:05 | 49.63014 | 6.22125 | 1214 ft | 15 kts | 40° |
| 2026-05-07 20:05 | 49.63078 | 6.22111 | 1217 ft | 3 kts | 329° |
| 2026-05-07 20:06 | 49.63082 | 6.22107 | 1217 ft | 0 kts | 329° |
| 2026-05-07 20:06 | 49.63090 | 6.22100 | 1218 ft | 6 kts | 329° |
| 2026-05-07 20:07 | 49.63126 | 6.22068 | 1222 ft | 5 kts | 330° |
| 2026-05-07 20:07 | 49.63177 | 6.21991 | 1228 ft | 11 kts | 282° |
| 2026-05-07 20:07 | 49.63157 | 6.21892 | 1227 ft | 9 kts | 245° |
| 2026-05-07 20:07 | 49.63136 | 6.21797 | 1226 ft | 9 kts | 275° |
| 2026-05-07 20:08 | 49.63168 | 6.21752 | 1228 ft | 4 kts | 329° |
| 2026-05-07 20:08 | 49.63200 | 6.21723 | 1229 ft | 8 kts | 330° |
| 2026-05-07 20:08 | 49.63254 | 6.21664 | 1230 ft | 10 kts | 311° |
| 2026-05-07 20:08 | 49.63281 | 6.21602 | 1230 ft | 3 kts | 316° |
| 2026-05-07 20:09 | 49.63297 | 6.21587 | 1230 ft | 2 kts | 332° |
| 2026-05-07 20:09 | 49.63308 | 6.21577 | 1230 ft | 1 kts | 330° |
| 2026-05-07 20:09 | 49.63326 | 6.21562 | 1230 ft | 4 kts | 330° |
| 2026-05-07 20:10 | 49.63334 | 6.21556 | 1230 ft | 0 kts | 330° |
| 2026-05-07 20:10 | 49.63334 | 6.21555 | 1230 ft | 0 kts | 330° |